ADDS TAF Data INFO
IDs: Format: Raw Decoded Include METARs

Data at: 1716 UTC 26 Apr 2018

KROW 261651Z 20004KT 10SM CLR 21/03 A2999 RMK AO2 SLP112 T02060028

KROW 261144Z 2612/2712 20005KT P6SM SKC
  FM261500 16008KT P6SM SCT250
  FM261800 01015G25KT P6SM SCT150
  FM270200 02012KT P6SM FEW150
  FM270500 36006KT P6SM SKC